Terminal Aerodrome Forecast
Issued by NWS North Platte, NE

Home | Current Version | Previous Version | Text Only | Print | Product List | Glossary Off
Versions: 1 2 3 4 5 6 7 8 9 10 11 12 13 14 15

000
FTUS43 KLBF 180500
TAFVTN
TAF
KVTN 180528Z 1806/1906 15012G18KT P6SM SCT150
     FM181400 17018G26KT P6SM SCT150
     FM181900 19024G32KT P6SM SCT250=

USA.gov is the U.S. government's official web portal to all federal, state and local government web resources and services.